sensor_id;sensor_type;location;lat;lon;timestamp;P1;durP1;ratioP1;P2;durP2;ratioP2
22924;SDS011;11628;51.072;3.712;2022-12-10T00:01:32;91.32;;;44.58;;
22924;SDS011;11628;51.072;3.712;2022-12-10T00:03:59;83.53;;;42.47;;
22924;SDS011;11628;51.072;3.712;2022-12-10T00:06:26;89.10;;;44.08;;
22924;SDS011;11628;51.072;3.712;2022-12-10T00:08:54;89.22;;;44.60;;
22924;SDS011;11628;51.072;3.712;2022-12-10T00:11:21;93.63;;;44.83;;
22924;SDS011;11628;51.072;3.712;2022-12-10T00:13:47;91.43;;;44.45;;
22924;SDS011;11628;51.072;3.712;2022-12-10T00:16:14;92.97;;;44.10;;
22924;SDS011;11628;51.072;3.712;2022-12-10T00:18:42;89.95;;;45.65;;
22924;SDS011;11628;51.072;3.712;2022-12-10T00:21:09;96.03;;;46.85;;
22924;SDS011;11628;51.072;3.712;2022-12-10T00:23:37;86.93;;;43.30;;
22924;SDS011;11628;51.072;3.712;2022-12-10T00:26:10;89.30;;;44.08;;
22924;SDS011;11628;51.072;3.712;2022-12-10T00:28:41;90.53;;;44.85;;
22924;SDS011;11628;51.072;3.712;2022-12-10T00:31:12;95.70;;;46.17;;
22924;SDS011;11628;51.072;3.712;2022-12-10T00:33:39;93.90;;;45.95;;
22924;SDS011;11628;51.072;3.712;2022-12-10T00:36:06;91.00;;;42.88;;
22924;SDS011;11628;51.072;3.712;2022-12-10T00:38:34;93.50;;;43.90;;
22924;SDS011;11628;51.072;3.712;2022-12-10T00:41:00;86.55;;;42.72;;
22924;SDS011;11628;51.072;3.712;2022-12-10T00:43:27;88.60;;;43.33;;
22924;SDS011;11628;51.072;3.712;2022-12-10T00:45:52;87.45;;;43.10;;
22924;SDS011;11628;51.072;3.712;2022-12-10T00:48:18;93.72;;;43.50;;
22924;SDS011;11628;51.072;3.712;2022-12-10T00:50:53;91.22;;;42.97;;
22924;SDS011;11628;51.072;3.712;2022-12-10T00:53:30;92.45;;;42.90;;
22924;SDS011;11628;51.072;3.712;2022-12-10T00:55:57;95.75;;;45.00;;
22924;SDS011;11628;51.072;3.712;2022-12-10T00:58:26;93.82;;;44.50;;
22924;SDS011;11628;51.072;3.712;2022-12-10T01:00:53;101.88;;;45.35;;
22924;SDS011;11628;51.072;3.712;2022-12-10T01:03:18;98.68;;;44.28;;
22924;SDS011;11628;51.072;3.712;2022-12-10T01:05:44;99.25;;;45.97;;
22924;SDS011;11628;51.072;3.712;2022-12-10T01:08:10;96.13;;;44.83;;
22924;SDS011;11628;51.072;3.712;2022-12-10T01:10:36;103.20;;;47.38;;
22924;SDS011;11628;51.072;3.712;2022-12-10T01:13:02;93.88;;;44.50;;
22924;SDS011;11628;51.072;3.712;2022-12-10T01:15:28;98.30;;;44.28;;
22924;SDS011;11628;51.072;3.712;2022-12-10T01:17:54;98.75;;;44.67;;
22924;SDS011;11628;51.072;3.712;2022-12-10T01:20:20;97.00;;;44.58;;
22924;SDS011;11628;51.072;3.712;2022-12-10T01:22:46;97.95;;;46.75;;
22924;SDS011;11628;51.072;3.712;2022-12-10T01:25:11;99.85;;;46.90;;
22924;SDS011;11628;51.072;3.712;2022-12-10T01:27:37;101.97;;;48.17;;
22924;SDS011;11628;51.072;3.712;2022-12-10T01:30:03;97.80;;;45.90;;
22924;SDS011;11628;51.072;3.712;2022-12-10T01:32:29;103.95;;;46.80;;
22924;SDS011;11628;51.072;3.712;2022-12-10T01:34:54;100.97;;;48.35;;
22924;SDS011;11628;51.072;3.712;2022-12-10T01:37:20;98.95;;;45.00;;
22924;SDS011;11628;51.072;3.712;2022-12-10T01:39:46;97.90;;;45.38;;
22924;SDS011;11628;51.072;3.712;2022-12-10T01:42:14;105.03;;;46.60;;
22924;SDS011;11628;51.072;3.712;2022-12-10T01:47:05;103.72;;;47.38;;
22924;SDS011;11628;51.072;3.712;2022-12-10T01:49:33;100.30;;;45.13;;
22924;SDS011;11628;51.072;3.712;2022-12-10T01:52:05;95.80;;;45.65;;
22924;SDS011;11628;51.072;3.712;2022-12-10T01:54:41;98.47;;;45.45;;
22924;SDS011;11628;51.072;3.712;2022-12-10T01:59:47;98.10;;;45.13;;
22924;SDS011;11628;51.072;3.712;2022-12-10T02:05:32;106.55;;;46.70;;
22924;SDS011;11628;51.072;3.712;2022-12-10T02:14:00;108.85;;;45.80;;
22924;SDS011;11628;51.072;3.712;2022-12-10T02:16:36;105.57;;;44.70;;
22924;SDS011;11628;51.072;3.712;2022-12-10T02:24:27;134.15;;;41.53;;
22924;SDS011;11628;51.072;3.712;2022-12-10T02:29:30;123.68;;;40.20;;
22924;SDS011;11628;51.072;3.712;2022-12-10T02:32:02;90.40;;;36.50;;
22924;SDS011;11628;51.072;3.712;2022-12-10T02:34:35;95.07;;;36.05;;
22924;SDS011;11628;51.072;3.712;2022-12-10T02:37:29;114.85;;;38.30;;
22924;SDS011;11628;51.072;3.712;2022-12-10T02:40:06;125.55;;;39.67;;
22924;SDS011;11628;51.072;3.712;2022-12-10T02:42:38;95.85;;;39.08;;
22924;SDS011;11628;51.072;3.712;2022-12-10T02:45:06;107.70;;;36.83;;
22924;SDS011;11628;51.072;3.712;2022-12-10T02:47:34;106.10;;;38.55;;
22924;SDS011;11628;51.072;3.712;2022-12-10T02:50:01;112.60;;;39.95;;
22924;SDS011;11628;51.072;3.712;2022-12-10T02:52:27;114.18;;;39.40;;
22924;SDS011;11628;51.072;3.712;2022-12-10T02:54:53;103.70;;;36.10;;
22924;SDS011;11628;51.072;3.712;2022-12-10T03:00:13;114.30;;;40.30;;
22924;SDS011;11628;51.072;3.712;2022-12-10T03:08:27;97.32;;;37.70;;
22924;SDS011;11628;51.072;3.712;2022-12-10T03:11:11;102.40;;;37.05;;
22924;SDS011;11628;51.072;3.712;2022-12-10T03:13:55;87.70;;;36.78;;
22924;SDS011;11628;51.072;3.712;2022-12-10T03:16:25;99.40;;;37.38;;
22924;SDS011;11628;51.072;3.712;2022-12-10T03:18:57;99.30;;;36.92;;
22924;SDS011;11628;51.072;3.712;2022-12-10T03:21:26;117.88;;;37.60;;
22924;SDS011;11628;51.072;3.712;2022-12-10T03:23:54;89.65;;;36.05;;
22924;SDS011;11628;51.072;3.712;2022-12-10T03:26:21;104.65;;;38.85;;
22924;SDS011;11628;51.072;3.712;2022-12-10T03:28:49;94.22;;;37.90;;
22924;SDS011;11628;51.072;3.712;2022-12-10T03:31:18;94.88;;;37.70;;
22924;SDS011;11628;51.072;3.712;2022-12-10T03:33:45;83.72;;;38.03;;
22924;SDS011;11628;51.072;3.712;2022-12-10T03:36:12;138.50;;;38.08;;
22924;SDS011;11628;51.072;3.712;2022-12-10T03:38:39;86.25;;;35.13;;
22924;SDS011;11628;51.072;3.712;2022-12-10T03:41:05;94.47;;;38.40;;
22924;SDS011;11628;51.072;3.712;2022-12-10T03:43:31;88.65;;;35.75;;
22924;SDS011;11628;51.072;3.712;2022-12-10T03:45:57;102.38;;;35.63;;
22924;SDS011;11628;51.072;3.712;2022-12-10T03:48:23;86.72;;;35.92;;
22924;SDS011;11628;51.072;3.712;2022-12-10T03:50:49;89.70;;;35.67;;
22924;SDS011;11628;51.072;3.712;2022-12-10T03:53:17;100.65;;;36.13;;
22924;SDS011;11628;51.072;3.712;2022-12-10T03:55:43;99.22;;;39.47;;
22924;SDS011;11628;51.072;3.712;2022-12-10T03:58:09;94.97;;;37.25;;
22924;SDS011;11628;51.072;3.712;2022-12-10T04:00:35;88.60;;;35.60;;
22924;SDS011;11628;51.072;3.712;2022-12-10T04:03:00;88.93;;;35.22;;
22924;SDS011;11628;51.072;3.712;2022-12-10T04:05:26;93.85;;;36.63;;
22924;SDS011;11628;51.072;3.712;2022-12-10T04:07:55;106.00;;;36.17;;
22924;SDS011;11628;51.072;3.712;2022-12-10T04:10:20;96.25;;;35.55;;
22924;SDS011;11628;51.072;3.712;2022-12-10T04:12:46;96.57;;;35.15;;
22924;SDS011;11628;51.072;3.712;2022-12-10T04:15:31;91.88;;;36.70;;
22924;SDS011;11628;51.072;3.712;2022-12-10T04:18:16;95.00;;;36.83;;
22924;SDS011;11628;51.072;3.712;2022-12-10T04:20:41;99.40;;;37.63;;
22924;SDS011;11628;51.072;3.712;2022-12-10T04:23:26;121.80;;;38.33;;
22924;SDS011;11628;51.072;3.712;2022-12-10T04:26:10;95.65;;;35.33;;
22924;SDS011;11628;51.072;3.712;2022-12-10T04:28:55;83.82;;;32.92;;
22924;SDS011;11628;51.072;3.712;2022-12-10T04:31:21;87.63;;;35.10;;
22924;SDS011;11628;51.072;3.712;2022-12-10T04:33:46;103.47;;;36.67;;
22924;SDS011;11628;51.072;3.712;2022-12-10T04:36:12;89.93;;;34.60;;
22924;SDS011;11628;51.072;3.712;2022-12-10T04:38:38;96.22;;;35.60;;
22924;SDS011;11628;51.072;3.712;2022-12-10T04:41:03;83.55;;;34.40;;
22924;SDS011;11628;51.072;3.712;2022-12-10T04:43:40;79.30;;;32.97;;
22924;SDS011;11628;51.072;3.712;2022-12-10T04:46:09;86.22;;;35.22;;
22924;SDS011;11628;51.072;3.712;2022-12-10T04:48:35;88.43;;;32.85;;
22924;SDS011;11628;51.072;3.712;2022-12-10T04:51:01;97.25;;;34.10;;
22924;SDS011;11628;51.072;3.712;2022-12-10T04:53:26;92.30;;;33.28;;
22924;SDS011;11628;51.072;3.712;2022-12-10T04:55:55;90.35;;;35.30;;
22924;SDS011;11628;51.072;3.712;2022-12-10T04:58:21;88.72;;;33.13;;
22924;SDS011;11628;51.072;3.712;2022-12-10T05:00:49;100.38;;;34.47;;
22924;SDS011;11628;51.072;3.712;2022-12-10T05:03:15;79.13;;;35.28;;
22924;SDS011;11628;51.072;3.712;2022-12-10T05:05:41;89.55;;;33.58;;
22924;SDS011;11628;51.072;3.712;2022-12-10T05:08:06;80.80;;;34.33;;
22924;SDS011;11628;51.072;3.712;2022-12-10T05:10:33;91.78;;;33.67;;
22924;SDS011;11628;51.072;3.712;2022-12-10T05:13:00;86.13;;;32.38;;
22924;SDS011;11628;51.072;3.712;2022-12-10T05:15:25;93.25;;;34.33;;
22924;SDS011;11628;51.072;3.712;2022-12-10T05:17:51;100.28;;;32.08;;
22924;SDS011;11628;51.072;3.712;2022-12-10T05:20:17;103.68;;;31.90;;
22924;SDS011;11628;51.072;3.712;2022-12-10T05:22:43;101.00;;;33.85;;
22924;SDS011;11628;51.072;3.712;2022-12-10T05:25:27;107.40;;;32.55;;
22924;SDS011;11628;51.072;3.712;2022-12-10T05:27:52;95.00;;;33.40;;
22924;SDS011;11628;51.072;3.712;2022-12-10T05:30:18;87.38;;;33.50;;
22924;SDS011;11628;51.072;3.712;2022-12-10T05:32:44;119.82;;;35.17;;
22924;SDS011;11628;51.072;3.712;2022-12-10T05:35:09;97.72;;;34.13;;
22924;SDS011;11628;51.072;3.712;2022-12-10T05:37:35;102.97;;;37.65;;
22924;SDS011;11628;51.072;3.712;2022-12-10T05:40:01;116.45;;;39.88;;
22924;SDS011;11628;51.072;3.712;2022-12-10T05:42:27;135.07;;;45.63;;
22924;SDS011;11628;51.072;3.712;2022-12-10T05:44:53;131.05;;;38.30;;
22924;SDS011;11628;51.072;3.712;2022-12-10T05:47:19;91.75;;;34.67;;
22924;SDS011;11628;51.072;3.712;2022-12-10T05:49:44;99.22;;;33.22;;
22924;SDS011;11628;51.072;3.712;2022-12-10T05:52:12;101.57;;;33.50;;
22924;SDS011;11628;51.072;3.712;2022-12-10T05:54:37;100.13;;;31.77;;
22924;SDS011;11628;51.072;3.712;2022-12-10T05:57:03;90.13;;;33.70;;
22924;SDS011;11628;51.072;3.712;2022-12-10T05:59:29;99.15;;;33.78;;
22924;SDS011;11628;51.072;3.712;2022-12-10T06:01:54;90.50;;;34.92;;
22924;SDS011;11628;51.072;3.712;2022-12-10T06:04:20;104.30;;;38.75;;
22924;SDS011;11628;51.072;3.712;2022-12-10T06:06:46;98.57;;;35.28;;
22924;SDS011;11628;51.072;3.712;2022-12-10T06:09:12;87.28;;;32.13;;
22924;SDS011;11628;51.072;3.712;2022-12-10T06:11:38;94.97;;;31.58;;
22924;SDS011;11628;51.072;3.712;2022-12-10T06:14:04;86.75;;;31.08;;
22924;SDS011;11628;51.072;3.712;2022-12-10T06:16:30;95.20;;;33.25;;
22924;SDS011;11628;51.072;3.712;2022-12-10T06:18:56;82.05;;;30.05;;
22924;SDS011;11628;51.072;3.712;2022-12-10T06:21:22;77.70;;;31.98;;
22924;SDS011;11628;51.072;3.712;2022-12-10T06:23:48;91.80;;;31.83;;
22924;SDS011;11628;51.072;3.712;2022-12-10T06:26:20;82.65;;;33.80;;
22924;SDS011;11628;51.072;3.712;2022-12-10T06:28:48;85.07;;;35.25;;
22924;SDS011;11628;51.072;3.712;2022-12-10T06:31:15;88.35;;;35.03;;
22924;SDS011;11628;51.072;3.712;2022-12-10T06:33:42;95.35;;;34.85;;
22924;SDS011;11628;51.072;3.712;2022-12-10T06:36:09;95.57;;;35.50;;
22924;SDS011;11628;51.072;3.712;2022-12-10T06:38:36;101.32;;;32.13;;
22924;SDS011;11628;51.072;3.712;2022-12-10T06:41:08;89.28;;;33.70;;
22924;SDS011;11628;51.072;3.712;2022-12-10T06:43:36;96.43;;;33.08;;
22924;SDS011;11628;51.072;3.712;2022-12-10T06:46:12;76.35;;;30.45;;
22924;SDS011;11628;51.072;3.712;2022-12-10T06:48:40;95.80;;;31.23;;
22924;SDS011;11628;51.072;3.712;2022-12-10T06:51:06;95.47;;;33.33;;
22924;SDS011;11628;51.072;3.712;2022-12-10T06:53:34;113.88;;;34.00;;
22924;SDS011;11628;51.072;3.712;2022-12-10T06:56:01;99.53;;;34.95;;
22924;SDS011;11628;51.072;3.712;2022-12-10T06:58:28;84.72;;;31.50;;
22924;SDS011;11628;51.072;3.712;2022-12-10T07:01:02;87.93;;;32.50;;
22924;SDS011;11628;51.072;3.712;2022-12-10T07:03:36;85.38;;;31.75;;
22924;SDS011;11628;51.072;3.712;2022-12-10T07:06:02;76.25;;;30.80;;
22924;SDS011;11628;51.072;3.712;2022-12-10T07:08:29;84.25;;;33.75;;
22924;SDS011;11628;51.072;3.712;2022-12-10T07:10:55;80.97;;;33.38;;
22924;SDS011;11628;51.072;3.712;2022-12-10T07:13:21;78.75;;;33.17;;
22924;SDS011;11628;51.072;3.712;2022-12-10T07:15:48;76.75;;;30.10;;
22924;SDS011;11628;51.072;3.712;2022-12-10T07:18:13;88.93;;;34.42;;
22924;SDS011;11628;51.072;3.712;2022-12-10T07:20:39;93.55;;;34.13;;
22924;SDS011;11628;51.072;3.712;2022-12-10T07:23:05;92.45;;;33.35;;
22924;SDS011;11628;51.072;3.712;2022-12-10T07:25:31;82.03;;;29.65;;
22924;SDS011;11628;51.072;3.712;2022-12-10T07:27:58;85.00;;;32.80;;
22924;SDS011;11628;51.072;3.712;2022-12-10T07:30:24;89.47;;;32.80;;
22924;SDS011;11628;51.072;3.712;2022-12-10T07:32:49;98.00;;;34.72;;
22924;SDS011;11628;51.072;3.712;2022-12-10T07:35:15;85.03;;;32.58;;
22924;SDS011;11628;51.072;3.712;2022-12-10T07:37:41;78.30;;;33.05;;
22924;SDS011;11628;51.072;3.712;2022-12-10T07:40:06;80.93;;;30.98;;
22924;SDS011;11628;51.072;3.712;2022-12-10T07:42:33;81.40;;;32.85;;
22924;SDS011;11628;51.072;3.712;2022-12-10T07:44:58;75.72;;;32.63;;
22924;SDS011;11628;51.072;3.712;2022-12-10T07:47:24;78.93;;;31.55;;
22924;SDS011;11628;51.072;3.712;2022-12-10T07:49:50;76.90;;;32.88;;
22924;SDS011;11628;51.072;3.712;2022-12-10T07:52:16;80.18;;;30.77;;
22924;SDS011;11628;51.072;3.712;2022-12-10T07:54:41;82.38;;;33.85;;
22924;SDS011;11628;51.072;3.712;2022-12-10T07:57:07;79.78;;;32.80;;
22924;SDS011;11628;51.072;3.712;2022-12-10T07:59:33;80.43;;;32.08;;
22924;SDS011;11628;51.072;3.712;2022-12-10T08:01:59;83.53;;;35.25;;
22924;SDS011;11628;51.072;3.712;2022-12-10T08:04:27;81.53;;;33.80;;
22924;SDS011;11628;51.072;3.712;2022-12-10T08:06:54;89.18;;;35.42;;
22924;SDS011;11628;51.072;3.712;2022-12-10T08:09:20;85.75;;;34.13;;
22924;SDS011;11628;51.072;3.712;2022-12-10T08:11:46;89.10;;;34.33;;
22924;SDS011;11628;51.072;3.712;2022-12-10T08:14:12;84.82;;;33.88;;
22924;SDS011;11628;51.072;3.712;2022-12-10T08:16:37;76.43;;;32.92;;
22924;SDS011;11628;51.072;3.712;2022-12-10T08:19:03;78.65;;;32.40;;
22924;SDS011;11628;51.072;3.712;2022-12-10T08:21:30;83.30;;;34.83;;
22924;SDS011;11628;51.072;3.712;2022-12-10T08:23:56;83.28;;;34.08;;
22924;SDS011;11628;51.072;3.712;2022-12-10T08:26:24;83.72;;;34.05;;
22924;SDS011;11628;51.072;3.712;2022-12-10T08:28:51;87.10;;;34.00;;
22924;SDS011;11628;51.072;3.712;2022-12-10T08:31:19;78.53;;;34.50;;
22924;SDS011;11628;51.072;3.712;2022-12-10T08:33:45;90.55;;;37.55;;
22924;SDS011;11628;51.072;3.712;2022-12-10T08:36:12;94.47;;;40.25;;
22924;SDS011;11628;51.072;3.712;2022-12-10T08:38:40;86.82;;;34.40;;
22924;SDS011;11628;51.072;3.712;2022-12-10T08:41:09;87.72;;;37.08;;
22924;SDS011;11628;51.072;3.712;2022-12-10T08:43:39;89.10;;;38.40;;
22924;SDS011;11628;51.072;3.712;2022-12-10T08:46:05;89.95;;;39.78;;
22924;SDS011;11628;51.072;3.712;2022-12-10T08:48:31;85.32;;;34.95;;
22924;SDS011;11628;51.072;3.712;2022-12-10T08:50:57;92.78;;;38.85;;
22924;SDS011;11628;51.072;3.712;2022-12-10T08:53:23;89.22;;;37.00;;
22924;SDS011;11628;51.072;3.712;2022-12-10T08:55:50;84.95;;;35.80;;
22924;SDS011;11628;51.072;3.712;2022-12-10T08:58:16;91.60;;;36.83;;
22924;SDS011;11628;51.072;3.712;2022-12-10T09:00:43;84.07;;;33.85;;
22924;SDS011;11628;51.072;3.712;2022-12-10T09:03:09;81.32;;;36.08;;
22924;SDS011;11628;51.072;3.712;2022-12-10T09:05:35;78.63;;;36.22;;
22924;SDS011;11628;51.072;3.712;2022-12-10T09:08:01;72.55;;;34.10;;
22924;SDS011;11628;51.072;3.712;2022-12-10T09:10:27;79.72;;;36.50;;
22924;SDS011;11628;51.072;3.712;2022-12-10T09:12:52;73.97;;;31.90;;
22924;SDS011;11628;51.072;3.712;2022-12-10T09:15:18;77.18;;;34.00;;
22924;SDS011;11628;51.072;3.712;2022-12-10T09:17:44;74.78;;;32.85;;
22924;SDS011;11628;51.072;3.712;2022-12-10T09:20:10;74.00;;;33.38;;
22924;SDS011;11628;51.072;3.712;2022-12-10T09:22:36;70.30;;;31.15;;
22924;SDS011;11628;51.072;3.712;2022-12-10T09:25:05;73.10;;;31.95;;
22924;SDS011;11628;51.072;3.712;2022-12-10T09:27:33;74.72;;;33.38;;
22924;SDS011;11628;51.072;3.712;2022-12-10T09:29:59;73.45;;;32.97;;
22924;SDS011;11628;51.072;3.712;2022-12-10T09:32:25;76.82;;;32.90;;
22924;SDS011;11628;51.072;3.712;2022-12-10T09:34:51;75.78;;;31.95;;
22924;SDS011;11628;51.072;3.712;2022-12-10T09:37:17;73.22;;;31.83;;
22924;SDS011;11628;51.072;3.712;2022-12-10T09:39:43;65.15;;;27.40;;
22924;SDS011;11628;51.072;3.712;2022-12-10T09:42:13;72.38;;;31.10;;
22924;SDS011;11628;51.072;3.712;2022-12-10T09:45:03;71.05;;;29.17;;
22924;SDS011;11628;51.072;3.712;2022-12-10T09:47:48;69.80;;;29.25;;
22924;SDS011;11628;51.072;3.712;2022-12-10T09:50:27;71.50;;;29.92;;
22924;SDS011;11628;51.072;3.712;2022-12-10T09:55:39;65.70;;;27.30;;
22924;SDS011;11628;51.072;3.712;2022-12-10T09:58:08;64.00;;;27.98;;
22924;SDS011;11628;51.072;3.712;2022-12-10T10:00:42;60.55;;;27.02;;
22924;SDS011;11628;51.072;3.712;2022-12-10T10:03:12;68.20;;;28.52;;
22924;SDS011;11628;51.072;3.712;2022-12-10T10:05:49;68.88;;;29.25;;
22924;SDS011;11628;51.072;3.712;2022-12-10T10:10:46;63.30;;;28.13;;
22924;SDS011;11628;51.072;3.712;2022-12-10T10:15:49;68.38;;;29.73;;
22924;SDS011;11628;51.072;3.712;2022-12-10T10:18:29;60.47;;;28.23;;
22924;SDS011;11628;51.072;3.712;2022-12-10T10:21:00;54.75;;;24.55;;
22924;SDS011;11628;51.072;3.712;2022-12-10T10:23:27;65.97;;;27.08;;
22924;SDS011;11628;51.072;3.712;2022-12-10T10:25:53;62.00;;;27.80;;
22924;SDS011;11628;51.072;3.712;2022-12-10T10:28:20;62.22;;;27.95;;
22924;SDS011;11628;51.072;3.712;2022-12-10T10:30:47;54.25;;;26.10;;
22924;SDS011;11628;51.072;3.712;2022-12-10T10:33:14;55.40;;;24.83;;
22924;SDS011;11628;51.072;3.712;2022-12-10T10:35:42;58.38;;;25.60;;
22924;SDS011;11628;51.072;3.712;2022-12-10T10:38:16;55.22;;;25.65;;
22924;SDS011;11628;51.072;3.712;2022-12-10T10:40:52;53.70;;;25.70;;
22924;SDS011;11628;51.072;3.712;2022-12-10T10:43:26;55.10;;;25.98;;
22924;SDS011;11628;51.072;3.712;2022-12-10T10:45:58;52.85;;;25.75;;
22924;SDS011;11628;51.072;3.712;2022-12-10T10:48:45;59.17;;;27.00;;
22924;SDS011;11628;51.072;3.712;2022-12-10T10:53:41;56.88;;;25.85;;
22924;SDS011;11628;51.072;3.712;2022-12-10T10:56:16;54.90;;;25.15;;
22924;SDS011;11628;51.072;3.712;2022-12-10T10:59:00;57.47;;;25.70;;
22924;SDS011;11628;51.072;3.712;2022-12-10T11:01:47;51.45;;;23.95;;
22924;SDS011;11628;51.072;3.712;2022-12-10T11:04:36;55.80;;;24.23;;
22924;SDS011;11628;51.072;3.712;2022-12-10T11:07:16;58.40;;;26.15;;
22924;SDS011;11628;51.072;3.712;2022-12-10T11:09:46;52.80;;;25.90;;
22924;SDS011;11628;51.072;3.712;2022-12-10T11:12:27;50.97;;;24.35;;
22924;SDS011;11628;51.072;3.712;2022-12-10T11:15:02;54.22;;;25.65;;
22924;SDS011;11628;51.072;3.712;2022-12-10T11:17:54;52.50;;;24.98;;
22924;SDS011;11628;51.072;3.712;2022-12-10T11:20:23;39.92;;;22.52;;
22924;SDS011;11628;51.072;3.712;2022-12-10T11:22:52;44.00;;;22.25;;
22924;SDS011;11628;51.072;3.712;2022-12-10T11:28:39;39.92;;;19.88;;
22924;SDS011;11628;51.072;3.712;2022-12-10T11:31:13;43.90;;;22.20;;
22924;SDS011;11628;51.072;3.712;2022-12-10T11:33:55;44.05;;;20.40;;
22924;SDS011;11628;51.072;3.712;2022-12-10T11:47:43;41.13;;;21.85;;
22924;SDS011;11628;51.072;3.712;2022-12-10T11:55:55;34.90;;;18.85;;
22924;SDS011;11628;51.072;3.712;2022-12-10T11:59:23;40.65;;;21.48;;
22924;SDS011;11628;51.072;3.712;2022-12-10T12:15:40;34.97;;;19.00;;
22924;SDS011;11628;51.072;3.712;2022-12-10T12:18:20;39.60;;;19.58;;
22924;SDS011;11628;51.072;3.712;2022-12-10T12:21:10;38.95;;;19.40;;
22924;SDS011;11628;51.072;3.712;2022-12-10T12:32:04;39.30;;;18.30;;
22924;SDS011;11628;51.072;3.712;2022-12-10T12:34:51;35.35;;;19.17;;
22924;SDS011;11628;51.072;3.712;2022-12-10T12:37:23;32.03;;;18.52;;
22924;SDS011;11628;51.072;3.712;2022-12-10T12:40:09;34.17;;;19.17;;
22924;SDS011;11628;51.072;3.712;2022-12-10T12:50:49;33.00;;;18.98;;
22924;SDS011;11628;51.072;3.712;2022-12-10T12:53:21;35.55;;;19.90;;
22924;SDS011;11628;51.072;3.712;2022-12-10T12:55:51;35.75;;;20.25;;
22924;SDS011;11628;51.072;3.712;2022-12-10T12:58:47;41.55;;;21.67;;
22924;SDS011;11628;51.072;3.712;2022-12-10T13:04:08;41.65;;;21.90;;
22924;SDS011;11628;51.072;3.712;2022-12-10T13:06:36;31.58;;;19.20;;
22924;SDS011;11628;51.072;3.712;2022-12-10T13:24:21;38.95;;;21.70;;
22924;SDS011;11628;51.072;3.712;2022-12-10T13:37:35;39.63;;;21.95;;
22924;SDS011;11628;51.072;3.712;2022-12-10T13:43:19;43.90;;;20.95;;
22924;SDS011;11628;51.072;3.712;2022-12-10T13:46:25;44.72;;;22.20;;
22924;SDS011;11628;51.072;3.712;2022-12-10T13:48:54;43.67;;;22.08;;
22924;SDS011;11628;51.072;3.712;2022-12-10T14:04:50;43.85;;;23.20;;
22924;SDS011;11628;51.072;3.712;2022-12-10T14:07:22;43.08;;;22.92;;
22924;SDS011;11628;51.072;3.712;2022-12-10T14:09:53;47.33;;;24.55;;
22924;SDS011;11628;51.072;3.712;2022-12-10T14:15:07;44.72;;;23.90;;
22924;SDS011;11628;51.072;3.712;2022-12-10T14:20:08;46.75;;;24.92;;
22924;SDS011;11628;51.072;3.712;2022-12-10T14:22:46;41.78;;;24.05;;
22924;SDS011;11628;51.072;3.712;2022-12-10T14:25:15;41.15;;;23.20;;
22924;SDS011;11628;51.072;3.712;2022-12-10T14:27:43;38.88;;;23.02;;
22924;SDS011;11628;51.072;3.712;2022-12-10T14:32:47;38.95;;;24.10;;
22924;SDS011;11628;51.072;3.712;2022-12-10T14:35:14;41.00;;;25.50;;
22924;SDS011;11628;51.072;3.712;2022-12-10T14:37:44;39.90;;;23.48;;
22924;SDS011;11628;51.072;3.712;2022-12-10T14:40:19;41.75;;;24.92;;
22924;SDS011;11628;51.072;3.712;2022-12-10T14:42:52;38.58;;;25.13;;
22924;SDS011;11628;51.072;3.712;2022-12-10T14:45:28;39.92;;;24.45;;
22924;SDS011;11628;51.072;3.712;2022-12-10T14:48:02;43.20;;;27.13;;
22924;SDS011;11628;51.072;3.712;2022-12-10T14:50:32;46.15;;;25.45;;
22924;SDS011;11628;51.072;3.712;2022-12-10T14:53:00;43.33;;;24.63;;
22924;SDS011;11628;51.072;3.712;2022-12-10T14:55:25;39.78;;;24.63;;
22924;SDS011;11628;51.072;3.712;2022-12-10T14:57:57;38.70;;;24.13;;
22924;SDS011;11628;51.072;3.712;2022-12-10T15:00:25;41.10;;;25.63;;
22924;SDS011;11628;51.072;3.712;2022-12-10T15:02:54;38.75;;;23.13;;
22924;SDS011;11628;51.072;3.712;2022-12-10T15:05:31;40.33;;;23.83;;
22924;SDS011;11628;51.072;3.712;2022-12-10T15:07:58;37.55;;;23.17;;
22924;SDS011;11628;51.072;3.712;2022-12-10T15:10:36;34.33;;;23.23;;
22924;SDS011;11628;51.072;3.712;2022-12-10T15:13:05;37.15;;;23.48;;
22924;SDS011;11628;51.072;3.712;2022-12-10T15:15:39;35.17;;;22.65;;
22924;SDS011;11628;51.072;3.712;2022-12-10T15:18:38;36.10;;;21.67;;
22924;SDS011;11628;51.072;3.712;2022-12-10T15:21:14;33.08;;;21.67;;
22924;SDS011;11628;51.072;3.712;2022-12-10T15:23:49;36.22;;;21.95;;
22924;SDS011;11628;51.072;3.712;2022-12-10T15:26:19;35.15;;;22.77;;
22924;SDS011;11628;51.072;3.712;2022-12-10T15:28:48;39.80;;;23.88;;
22924;SDS011;11628;51.072;3.712;2022-12-10T15:31:22;39.00;;;22.73;;
22924;SDS011;11628;51.072;3.712;2022-12-10T15:34:05;35.72;;;22.45;;
22924;SDS011;11628;51.072;3.712;2022-12-10T15:41:42;35.38;;;22.02;;
22924;SDS011;11628;51.072;3.712;2022-12-10T15:47:04;44.28;;;24.83;;
22924;SDS011;11628;51.072;3.712;2022-12-10T15:49:39;36.63;;;22.55;;
22924;SDS011;11628;51.072;3.712;2022-12-10T15:52:05;38.78;;;24.23;;
22924;SDS011;11628;51.072;3.712;2022-12-10T15:54:32;38.10;;;23.58;;
22924;SDS011;11628;51.072;3.712;2022-12-10T15:57:00;35.50;;;23.95;;
22924;SDS011;11628;51.072;3.712;2022-12-10T15:59:42;38.33;;;24.52;;
22924;SDS011;11628;51.072;3.712;2022-12-10T16:05:09;38.03;;;24.40;;
22924;SDS011;11628;51.072;3.712;2022-12-10T16:07:43;38.17;;;24.90;;
22924;SDS011;11628;51.072;3.712;2022-12-10T16:10:10;40.67;;;27.23;;
22924;SDS011;11628;51.072;3.712;2022-12-10T16:12:38;41.13;;;25.65;;
22924;SDS011;11628;51.072;3.712;2022-12-10T16:15:06;40.17;;;24.75;;
22924;SDS011;11628;51.072;3.712;2022-12-10T16:17:35;42.08;;;26.58;;
22924;SDS011;11628;51.072;3.712;2022-12-10T16:20:18;37.22;;;24.00;;
22924;SDS011;11628;51.072;3.712;2022-12-10T16:22:48;42.60;;;25.92;;
22924;SDS011;11628;51.072;3.712;2022-12-10T16:25:14;40.95;;;26.00;;
22924;SDS011;11628;51.072;3.712;2022-12-10T16:27:40;43.67;;;25.77;;
22924;SDS011;11628;51.072;3.712;2022-12-10T16:30:21;38.85;;;24.45;;
22924;SDS011;11628;51.072;3.712;2022-12-10T16:32:48;43.35;;;26.23;;
22924;SDS011;11628;51.072;3.712;2022-12-10T16:35:14;39.10;;;26.05;;
22924;SDS011;11628;51.072;3.712;2022-12-10T16:37:41;44.65;;;28.52;;
22924;SDS011;11628;51.072;3.712;2022-12-10T16:40:12;44.63;;;25.77;;
22924;SDS011;11628;51.072;3.712;2022-12-10T16:42:39;46.78;;;26.42;;
22924;SDS011;11628;51.072;3.712;2022-12-10T16:45:15;37.08;;;23.10;;
22924;SDS011;11628;51.072;3.712;2022-12-10T16:47:46;39.35;;;25.63;;
22924;SDS011;11628;51.072;3.712;2022-12-10T16:50:13;41.50;;;27.23;;
22924;SDS011;11628;51.072;3.712;2022-12-10T16:52:42;39.83;;;27.10;;
22924;SDS011;11628;51.072;3.712;2022-12-10T16:55:17;43.95;;;28.67;;
22924;SDS011;11628;51.072;3.712;2022-12-10T16:57:45;42.78;;;28.05;;
22924;SDS011;11628;51.072;3.712;2022-12-10T17:00:14;41.35;;;27.65;;
22924;SDS011;11628;51.072;3.712;2022-12-10T17:02:41;41.17;;;28.25;;
22924;SDS011;11628;51.072;3.712;2022-12-10T17:07:54;43.92;;;28.75;;
22924;SDS011;11628;51.072;3.712;2022-12-10T17:10:20;45.05;;;28.70;;
22924;SDS011;11628;51.072;3.712;2022-12-10T17:13:07;42.10;;;27.60;;
22924;SDS011;11628;51.072;3.712;2022-12-10T17:15:37;45.08;;;28.85;;